Time;durP1;ratioP1;P1;durP2;ratioP2;P2;SDS_P1;SDS_P2;PMS_P1;PMS_P2;Temp;Humidity;BMP_temperature;BMP_pressure;BME280_temperature;BME280_humidity;BME280_pressure;Samples;Min_cycle;Max_cycle;Signal;HPM_P1;HPM_P2
2023/04/07 00:02:25;;;;;;;4.00;2.40;;;14.40;99.90;;;14.38;52.96;100969.31;4908859;28;98735;-42
2023/04/07 00:04:51;;;;;;;5.07;2.90;;;14.10;99.90;;;14.21;55.21;100969.22;4907684;28;99844;-41
2023/04/07 00:07:17;;;;;;;5.33;3.30;;;13.90;99.90;;;14.25;54.05;100976.13;4910385;28;97568;-44
2023/04/07 00:09:43;;;;;;;1.23;0.83;;;13.90;99.90;;;14.10;50.15;100971.50;4905248;28;98491;-47
2023/04/07 00:12:09;;;;;;;4.07;2.27;;;13.80;99.90;;;14.07;51.53;100979.59;4908822;28;97680;-42
2023/04/07 00:14:34;;;;;;;4.37;2.53;;;13.70;99.90;;;13.95;56.05;100973.91;4893189;28;97311;-46
2023/04/07 00:17:00;;;;;;;0.47;0.43;;;13.60;99.90;;;14.00;49.01;100974.56;4897314;28;126259;-44
2023/04/07 00:19:26;;;;;;;0.97;0.90;;;13.70;99.90;;;14.10;49.89;100975.00;4900963;28;98604;-45
2023/04/07 00:21:53;;;;;;;4.27;2.20;;;13.90;99.90;;;14.16;51.35;100963.25;4892092;28;98614;-44
2023/04/07 00:24:19;;;;;;;3.37;1.50;;;14.00;99.90;;;14.13;49.60;100971.34;4896497;28;98449;-45
2023/04/07 00:26:45;;;;;;;2.90;1.73;;;13.90;99.90;;;14.09;51.57;100968.00;4906297;28;98231;-43
2023/04/07 00:29:11;;;;;;;4.20;2.40;;;13.90;99.90;;;14.04;56.14;100975.31;4907990;28;97532;-43
2023/04/07 00:31:36;;;;;;;1.63;1.13;;;13.80;99.90;;;13.86;52.32;100966.34;4904725;28;100160;-47
2023/04/07 00:34:02;;;;;;;1.17;0.73;;;13.60;99.90;;;13.89;49.92;100965.38;4911271;28;123066;-41
2023/04/07 00:36:28;;;;;;;3.23;2.13;;;13.60;99.90;;;13.84;55.29;100960.25;4908708;28;98590;-41
2023/04/07 00:38:54;;;;;;;4.87;2.23;;;13.50;99.90;;;13.77;55.51;100957.97;4914138;28;99130;-46
2023/04/07 00:41:20;;;;;;;0.90;0.70;;;13.40;99.90;;;13.86;49.73;100965.50;4914859;28;97529;-44
2023/04/07 00:43:45;;;;;;;2.80;1.67;;;13.50;99.90;;;13.90;51.36;100957.34;4888556;28;97513;-50
2023/04/07 00:46:11;;;;;;;0.70;0.50;;;13.60;99.90;;;13.99;49.05;100962.22;4894605;28;99310;-42
2023/04/07 00:48:37;;;;;;;1.50;0.70;;;13.70;99.90;;;14.07;49.06;100958.38;4907278;28;98487;-50
2023/04/07 00:51:04;;;;;;;0.90;0.77;;;13.90;99.90;;;14.19;48.91;100952.53;4913846;28;97368;-47
2023/04/07 00:53:30;;;;;;;1.20;0.80;;;14.00;99.90;;;14.34;47.92;100951.81;4909846;28;99634;-42
2023/04/07 00:55:56;;;;;;;1.10;0.67;;;14.20;99.90;;;14.45;47.79;100944.22;4910929;28;109616;-45
2023/04/07 00:58:21;;;;;;;3.13;2.03;;;14.40;99.90;;;14.52;51.67;100960.75;4908512;28;98390;-48
2023/04/07 01:01:12;;;;;;;4.60;2.20;;;14.40;99.90;;;14.33;55.00;100949.25;4896289;28;96758;-44
2023/04/07 01:04:01;;;;;;;2.60;2.17;;;14.20;99.90;;;14.15;55.09;100945.63;4894781;28;97908;-46
2023/04/07 01:06:33;;;;;;;4.60;2.87;;;13.90;99.90;;;13.91;56.50;100952.91;4906867;28;97526;-44
2023/04/07 01:09:18;;;;;;;4.03;2.17;;;13.60;99.90;;;13.83;55.71;100949.72;4890402;28;97607;-42
2023/04/07 01:12:24;;;;;;;3.87;2.23;;;13.50;99.90;;;13.75;50.71;100947.44;4892603;28;97401;-46
2023/04/07 01:14:54;;;;;;;3.77;2.33;;;13.30;99.90;;;13.75;54.25;100942.13;4893703;28;98429;-44
2023/04/07 01:17:24;;;;;;;3.13;1.00;;;13.40;99.90;;;13.79;50.38;100943.72;4909697;28;97247;-46
2023/04/07 01:20:02;;;;;;;2.23;1.17;;;13.40;99.90;;;13.75;50.48;100942.13;4893183;28;97780;-42
2023/04/07 01:22:40;;;;;;;1.63;0.83;;;13.40;99.90;;;13.83;49.79;100945.28;4894071;28;97612;-45
2023/04/07 01:25:33;;;;;;;0.90;0.60;;;13.50;99.90;;;13.91;49.49;100948.47;4909881;28;102049;-44
2023/04/07 01:28:56;;;;;;;1.00;0.70;;;13.60;99.90;;;14.07;49.01;100943.34;4915882;28;101120;-43
2023/04/07 01:31:25;;;;;;;0.97;0.67;;;13.80;99.90;;;14.18;48.45;100945.50;4921270;28;97472;-45
2023/04/07 01:33:53;;;;;;;0.77;0.63;;;14.00;99.90;;;14.27;48.72;100939.75;4916801;28;98047;-41
2023/04/07 01:36:20;;;;;;;1.23;0.77;;;14.10;99.90;;;14.30;48.17;100944.91;4919538;28;97514;-46
2023/04/07 01:38:47;;;;;;;1.83;1.00;;;14.10;99.90;;;14.35;48.53;100936.75;4899366;28;97458;-46
2023/04/07 01:41:14;;;;;;;1.90;1.20;;;14.10;99.90;;;14.30;48.92;100944.91;4919103;28;96991;-45
2023/04/07 01:43:41;;;;;;;0.67;0.47;;;14.00;99.90;;;14.34;48.61;100946.50;4895057;28;96842;-46
2023/04/07 01:46:08;;;;;;;4.47;2.87;;;14.00;99.90;;;14.29;49.89;100948.50;4884417;28;113332;-47
2023/04/07 01:48:35;;;;;;;1.70;1.33;;;13.90;99.90;;;14.30;48.61;100944.91;4911966;28;104897;-45
2023/04/07 01:51:04;;;;;;;2.00;0.90;;;13.90;99.90;;;14.31;48.66;100946.63;4908635;28;99043;-44
2023/04/07 01:53:31;;;;;;;4.87;3.10;;;13.90;99.90;;;14.27;51.87;100945.06;4906033;28;100427;-43
2023/04/07 01:55:57;;;;;;;5.83;2.93;;;13.90;99.90;;;14.08;54.39;100945.06;4905508;28;111322;-42
2023/04/07 01:58:22;;;;;;;4.13;1.97;;;13.70;99.90;;;14.05;50.63;100941.69;4917441;28;108381;-42
2023/04/07 02:00:50;;;;;;;4.50;2.63;;;13.60;99.90;;;13.98;51.83;100941.94;4919433;28;96817;-41
2023/04/07 02:03:28;;;;;;;4.60;3.10;;;13.50;99.90;;;13.92;53.19;100939.59;4923965;28;97192;-44
2023/04/07 02:06:03;;;;;;;3.33;2.67;;;13.40;99.90;;;13.89;52.24;100928.25;4919706;28;101672;-47
2023/04/07 02:08:31;;;;;;;3.07;2.20;;;13.40;99.90;;;13.87;50.54;100936.25;4919937;28;97044;-45
2023/04/07 02:10:58;;;;;;;1.10;0.70;;;13.40;99.90;;;13.90;49.72;100935.28;4928688;28;96733;-41
2023/04/07 02:13:26;;;;;;;2.00;1.70;;;13.40;99.90;;;13.91;50.25;100937.88;4926240;28;97480;-43
2023/04/07 02:15:53;;;;;;;4.30;2.63;;;13.50;99.90;;;13.87;55.29;100938.03;4933063;22;101808;-47
2023/04/07 02:18:21;;;;;;;6.57;3.50;;;13.50;99.90;;;13.84;54.75;100941.69;4903391;28;97833;-47
2023/04/07 02:20:47;;;;;;;5.37;3.10;;;13.40;99.90;;;13.76;54.65;100927.94;4905193;28;97175;-43
2023/04/07 02:23:13;;;;;;;4.80;3.27;;;13.30;99.90;;;13.67;54.87;100938.94;4913585;28;97103;-43
2023/04/07 02:25:39;;;;;;;4.37;2.77;;;13.20;99.90;;;13.63;53.20;100934.72;4922282;28;104940;-43
2023/04/07 02:28:06;;;;;;;4.87;3.00;;;13.20;99.90;;;13.64;52.79;100932.00;4923124;28;97449;-46
2023/04/07 02:30:32;;;;;;;6.10;3.33;;;13.20;99.90;;;13.67;51.60;100938.94;4904258;28;97133;-45
2023/04/07 02:32:58;;;;;;;2.43;1.53;;;13.20;99.90;;;13.73;50.93;100936.00;4925867;28;97156;-44
2023/04/07 02:35:24;;;;;;;9.67;4.20;;;13.30;99.90;;;13.69;53.23;100926.47;4918882;28;106473;-47
2023/04/07 02:37:50;;;;;;;0.80;0.77;;;13.30;99.90;;;13.71;51.32;100929.91;4913115;28;97723;-44
2023/04/07 02:40:17;;;;;;;6.93;3.20;;;13.30;99.90;;;13.65;54.65;100932.84;4918771;28;97851;-46
2023/04/07 02:42:43;;;;;;;5.27;3.17;;;13.20;99.90;;;13.69;53.73;100932.63;4927349;28;97938;-44
2023/04/07 02:45:10;;;;;;;6.70;3.70;;;13.30;99.90;;;13.63;56.05;100932.06;4916015;28;97609;-45
2023/04/07 02:47:38;;;;;;;5.90;3.50;;;13.20;99.90;;;13.63;53.44;100935.56;4916221;28;99022;-47
2023/04/07 02:50:05;;;;;;;12.30;4.30;;;13.20;99.90;;;13.59;55.28;100936.59;4905572;28;96934;-48
2023/04/07 02:52:31;;;;;;;7.43;4.30;;;13.10;99.90;;;13.65;58.06;100946.09;4922111;28;97071;-45
2023/04/07 02:54:56;;;;;;;6.53;3.80;;;13.20;99.90;;;13.60;54.40;100937.50;4924306;28;99626;-48
2023/04/07 02:57:22;;;;;;;1.30;1.20;;;13.20;99.90;;;13.62;51.75;100948.91;4901983;28;97254;-45
2023/04/07 02:59:48;;;;;;;7.73;4.83;;;13.20;99.90;;;13.58;58.09;100940.19;4900054;28;97038;-45
2023/04/07 03:02:14;;;;;;;6.83;4.27;;;13.20;99.90;;;13.55;55.16;100940.34;4914190;28;97106;-44
2023/04/07 03:04:40;;;;;;;6.10;4.03;;;13.20;99.90;;;13.54;59.08;100953.66;4907131;28;99646;-44
2023/04/07 03:07:06;;;;;;;6.80;3.80;;;13.20;99.90;;;13.52;60.41;100950.22;4913263;28;97329;-43
2023/04/07 03:09:32;;;;;;;8.07;4.43;;;13.10;99.90;;;13.47;57.88;100946.91;4917930;28;97381;-46
2023/04/07 03:11:58;;;;;;;9.83;4.33;;;13.10;99.90;;;13.38;62.39;100950.81;4924755;28;97333;-48
2023/04/07 03:14:23;;;;;;;9.50;4.30;;;13.10;99.90;;;13.30;62.78;100944.94;4920847;28;97746;-48
2023/04/07 03:16:49;;;;;;;8.57;4.10;;;13.10;99.90;;;13.15;64.18;100941.13;4921770;28;110661;-44
2023/04/07 03:19:15;;;;;;;8.43;4.93;;;13.00;99.90;;;13.08;64.39;100944.97;4915342;28;96826;-46
2023/04/07 03:21:41;;;;;;;9.97;4.67;;;13.00;99.90;;;12.91;65.08;100947.44;4915434;28;97387;-47
2023/04/07 03:24:07;;;;;;;8.43;4.20;;;12.80;99.90;;;12.80;65.85;100940.78;4913217;28;111317;-45
2023/04/07 03:26:33;;;;;;;8.43;4.10;;;12.70;99.90;;;12.62;66.52;100954.78;4921913;28;97363;-43
2023/04/07 03:28:59;;;;;;;8.40;4.93;;;12.60;99.90;;;12.61;66.48;100953.06;4917377;28;96994;-44
2023/04/07 03:31:26;;;;;;;9.27;4.20;;;12.60;99.90;;;12.55;67.00;100944.47;4918633;28;97133;-45
2023/04/07 03:33:52;;;;;;;8.60;4.00;;;12.50;99.90;;;12.43;67.76;100945.81;4906552;28;101271;-47
2023/04/07 03:36:18;;;;;;;9.57;4.40;;;12.40;99.90;;;12.33;67.78;100939.16;4902547;28;97491;-44
2023/04/07 03:38:46;;;;;;;7.00;4.07;;;12.40;99.90;;;12.20;68.46;100944.06;4909157;28;97392;-45
2023/04/07 03:41:12;;;;;;;8.50;4.67;;;12.30;99.90;;;12.23;68.44;100943.06;4925980;28;98119;-44
2023/04/07 03:43:38;;;;;;;11.03;4.53;;;12.30;99.90;;;12.10;69.03;100948.81;4910773;28;97360;-45
2023/04/07 03:46:04;;;;;;;10.17;4.63;;;12.30;99.90;;;11.96;69.55;100947.59;4923769;28;97187;-43
2023/04/07 03:48:30;;;;;;;10.87;4.60;;;12.10;99.90;;;11.97;69.90;100952.84;4910148;28;97228;-43
2023/04/07 03:50:56;;;;;;;9.90;5.03;;;12.10;99.90;;;11.90;69.91;100946.06;4925144;28;96699;-42
2023/04/07 03:53:22;;;;;;;14.20;4.80;;;12.10;99.90;;;11.72;70.54;100946.69;4903167;28;97787;-46
2023/04/07 03:55:48;;;;;;;10.10;4.47;;;12.00;99.90;;;11.73;70.78;100944.00;4918881;28;98506;-43
2023/04/07 03:58:14;;;;;;;11.90;4.50;;;11.90;99.90;;;11.59;71.20;100941.84;4908876;28;97830;-45
2023/04/07 04:00:40;;;;;;;6.27;3.93;;;11.80;99.90;;;11.55;71.60;100945.47;4917155;28;97314;-45
2023/04/07 04:03:06;;;;;;;9.97;4.53;;;11.80;99.90;;;11.56;71.56;100956.91;4920585;28;97404;-43
2023/04/07 04:05:31;;;;;;;9.53;4.77;;;11.80;99.90;;;11.52;71.86;100960.59;4917803;28;97304;-47
2023/04/07 04:07:57;;;;;;;7.13;3.37;;;11.80;99.90;;;11.59;71.95;100951.56;4924258;28;97360;-45
2023/04/07 04:10:23;;;;;;;10.20;4.87;;;11.80;99.90;;;11.52;71.81;100953.53;4915922;28;101691;-44
2023/04/07 04:12:49;;;;;;;6.57;3.83;;;11.80;99.90;;;11.49;71.51;100965.97;4903406;28;97604;-45
2023/04/07 04:15:15;;;;;;;11.47;4.67;;;11.70;99.90;;;11.47;71.87;100967.81;4914715;28;97222;-43
2023/04/07 04:17:41;;;;;;;10.67;4.27;;;11.70;99.90;;;11.48;71.63;100965.13;4914412;28;96923;-45
2023/04/07 04:20:08;;;;;;;5.57;3.17;;;11.70;99.90;;;11.46;71.53;100966.97;4919235;28;110538;-46
2023/04/07 04:22:34;;;;;;;7.30;3.47;;;11.70;99.90;;;11.44;71.88;100970.56;4925562;28;99898;-44
2023/04/07 04:25:00;;;;;;;7.73;4.10;;;11.70;99.90;;;11.45;71.66;100970.53;4909753;28;97375;-43
2023/04/07 04:27:27;;;;;;;7.60;3.47;;;11.70;99.90;;;11.43;71.18;100972.34;4918672;28;97500;-46
2023/04/07 04:29:53;;;;;;;6.00;3.50;;;11.60;99.90;;;11.43;71.53;100961.78;4910884;28;97314;-47
2023/04/07 04:32:20;;;;;;;7.43;4.30;;;11.60;99.90;;;11.55;70.34;100977.19;4911669;28;97934;-49
2023/04/07 04:34:46;;;;;;;5.37;2.97;;;11.70;99.90;;;11.51;70.91;100974.72;4916483;28;98147;-43
2023/04/07 04:37:11;;;;;;;7.27;3.13;;;11.70;99.90;;;11.52;70.88;100977.31;4910798;28;104396;-46
2023/04/07 04:39:37;;;;;;;9.83;3.77;;;11.70;99.90;;;11.53;70.95;100983.44;4923999;28;97479;-48
2023/04/07 04:42:04;;;;;;;7.57;4.00;;;11.70;99.90;;;11.48;70.90;100982.75;4932324;28;109613;-44
2023/04/07 04:44:30;;;;;;;7.43;3.23;;;11.70;99.90;;;11.48;70.95;100991.53;4915218;28;99451;-44
2023/04/07 04:49:31;;;;;;;8.83;3.73;;;11.60;99.90;;;11.51;70.78;100991.44;5650076;22;98446;-40
2023/04/07 04:51:57;;;;;;;4.07;2.60;;;11.60;99.90;;;11.46;71.14;100988.09;4918307;28;97298;-41
2023/04/07 04:54:23;;;;;;;7.03;3.07;;;11.60;99.90;;;11.44;71.06;100989.94;4929461;28;110113;-46
2023/04/07 04:56:49;;;;;;;7.07;3.07;;;11.60;99.90;;;11.44;71.29;100989.94;4909508;28;97072;-46
2023/04/07 04:59:15;;;;;;;9.30;4.13;;;11.60;99.90;;;11.41;71.33;100995.28;4924833;28;97301;-42
2023/04/07 05:01:41;;;;;;;8.60;3.70;;;11.60;99.90;;;11.43;71.01;100992.59;4925357;28;96924;-41
2023/04/07 05:04:08;;;;;;;10.23;3.67;;;11.60;99.90;;;11.45;71.20;100990.78;4901442;28;98950;-46
2023/04/07 05:06:34;;;;;;;8.60;4.23;;;11.60;99.90;;;11.48;71.35;100995.97;4908758;28;97843;-44
2023/04/07 05:08:59;;;;;;;9.50;3.57;;;11.60;99.90;;;11.54;71.06;101001.03;4929802;28;96914;-42
2023/04/07 05:11:25;;;;;;;5.53;3.00;;;11.60;99.90;;;11.55;70.99;100993.03;4925478;28;97488;-40
2023/04/07 05:13:51;;;;;;;7.63;3.87;;;11.60;99.90;;;11.49;71.09;101003.84;4898987;28;97326;-44
2023/04/07 05:16:17;;;;;;;7.03;3.63;;;11.70;99.90;;;11.43;71.33;101004.06;4924663;28;97360;-43
2023/04/07 05:18:43;;;;;;;5.80;3.03;;;11.70;99.90;;;11.50;70.58;101002.06;4908735;28;97276;-44
2023/04/07 05:21:08;;;;;;;9.80;3.83;;;11.70;99.90;;;11.35;70.75;101011.34;4906248;28;98294;-43
2023/04/07 05:23:35;;;;;;;10.17;3.67;;;11.60;99.90;;;11.31;71.11;101009.75;4919023;28;98703;-45
2023/04/07 05:26:01;;;;;;;8.10;4.13;;;11.60;99.90;;;11.24;71.31;101008.19;4917260;28;97286;-43
2023/04/07 05:28:27;;;;;;;3.77;2.53;;;11.50;99.90;;;11.19;71.48;101020.69;4921303;28;97457;-43
2023/04/07 05:30:52;;;;;;;6.23;3.63;;;11.50;99.90;;;11.23;70.99;101019.69;4909088;28;97821;-45
2023/04/07 05:33:19;;;;;;;6.13;2.80;;;11.50;99.90;;;11.26;71.25;101014.28;4928764;28;97397;-46
2023/04/07 05:35:46;;;;;;;6.00;3.17;;;11.50;99.90;;;11.24;70.89;101018.75;4915969;28;97552;-40
2023/04/07 05:38:12;;;;;;;6.70;2.93;;;11.50;99.90;;;11.27;70.80;101016.00;4921401;28;97150;-40
2023/04/07 05:40:39;;;;;;;8.73;2.83;;;11.50;99.90;;;11.35;70.39;101021.06;4902716;28;97507;-44
2023/04/07 05:43:05;;;;;;;4.57;2.80;;;11.60;99.90;;;11.29;70.60;101022.13;4912877;28;97335;-43
2023/04/07 05:45:31;;;;;;;7.10;3.53;;;11.50;99.90;;;11.25;70.84;101025.78;4919783;28;97264;-44
2023/04/07 05:47:56;;;;;;;6.73;2.60;;;11.50;99.90;;;11.24;71.05;101030.19;4927770;28;97164;-43
2023/04/07 05:50:22;;;;;;;4.57;3.03;;;11.40;99.90;;;11.23;70.91;101033.75;4926784;28;98807;-44
2023/04/07 05:52:48;;;;;;;4.60;2.57;;;11.40;99.90;;;11.22;70.98;101031.16;4915115;28;102400;-48
2023/04/07 05:55:14;;;;;;;6.63;2.67;;;11.40;99.90;;;11.11;71.36;101035.91;4917667;28;105724;-44
2023/04/07 05:57:40;;;;;;;4.40;2.43;;;11.40;99.90;;;11.11;71.77;101033.25;4926381;28;96894;-43
2023/04/07 06:00:08;;;;;;;5.20;2.80;;;11.40;99.90;;;11.11;71.60;101036.78;4924252;28;97468;-44
2023/04/07 06:02:34;;;;;;;6.57;2.37;;;11.30;99.90;;;11.13;71.38;101042.00;4910546;28;98600;-44
2023/04/07 06:05:00;;;;;;;4.70;2.27;;;11.30;99.90;;;11.02;71.97;101040.59;4913237;28;97254;-44
2023/04/07 06:07:26;;;;;;;8.30;3.07;;;11.30;99.90;;;11.07;72.13;101039.56;4915730;28;97959;-41
2023/04/07 06:09:51;;;;;;;6.83;2.83;;;11.20;99.90;;;11.05;71.89;101044.03;4928813;28;99548;-40
2023/04/07 06:12:17;;;;;;;2.93;1.80;;;11.30;99.90;;;11.09;72.07;101051.78;4918723;28;97646;-43
2023/04/07 06:14:51;;;;;;;7.27;2.57;;;11.30;99.90;;;11.08;71.82;101055.34;4911790;28;97447;-44
2023/04/07 06:17:17;;;;;;;4.77;2.47;;;11.30;99.90;;;11.14;71.83;101060.47;4920488;28;98172;-44
2023/04/07 06:19:44;;;;;;;3.87;2.20;;;11.30;99.90;;;11.20;71.63;101059.38;4922432;28;97751;-45
2023/04/07 06:22:10;;;;;;;3.30;2.07;;;11.30;99.90;;;11.20;71.44;101065.53;4908475;28;97103;-45
2023/04/07 06:24:35;;;;;;;6.67;2.70;;;11.40;99.90;;;11.28;71.26;101062.63;4904920;28;97488;-44
2023/04/07 06:27:02;;;;;;;5.67;2.57;;;11.40;99.90;;;11.25;71.12;101063.59;4919110;28;96949;-48
2023/04/07 06:29:29;;;;;;;4.07;1.97;;;11.40;99.90;;;11.28;70.75;101062.63;4916269;28;97662;-41
2023/04/07 06:31:55;;;;;;;4.33;2.00;;;11.40;99.90;;;11.24;71.23;101071.56;4905777;28;99747;-42
2023/04/07 06:34:21;;;;;;;4.43;1.70;;;11.40;99.90;;;11.27;70.93;101067.06;4921940;28;97694;-42
2023/04/07 06:36:47;;;;;;;4.03;2.00;;;11.40;99.90;;;11.21;71.04;101071.69;4910733;28;101777;-45
2023/04/07 06:39:12;;;;;;;5.30;2.43;;;11.40;99.90;;;11.23;71.19;101076.00;4916051;28;109348;-45
2023/04/07 06:41:41;;;;;;;2.87;1.70;;;11.40;99.90;;;11.14;71.06;101070.13;4922665;28;97187;-43
2023/04/07 06:44:10;;;;;;;4.43;2.03;;;11.40;99.90;;;11.09;71.60;101079.97;4916844;28;97034;-43
2023/04/07 06:46:36;;;;;;;3.87;2.03;;;11.30;99.90;;;11.11;71.57;101081.66;4915553;28;97497;-43
2023/04/07 06:49:02;;;;;;;4.03;1.60;;;11.30;99.90;;;11.17;71.07;101080.63;4917719;28;97409;-40
2023/04/07 06:51:29;;;;;;;3.10;1.70;;;11.40;99.90;;;11.06;71.51;101080.94;4929412;28;98438;-43
2023/04/07 06:53:54;;;;;;;4.53;2.17;;;11.30;99.90;;;11.11;72.04;101088.72;4925140;28;97198;-46
2023/04/07 06:56:22;;;;;;;3.93;1.70;;;11.30;99.90;;;11.13;71.78;101086.88;4930760;28;97934;-43
2023/04/07 06:58:48;;;;;;;2.33;1.10;;;11.30;99.90;;;11.02;72.05;101088.09;4919194;28;97269;-43
2023/04/07 07:01:14;;;;;;;3.97;1.93;;;11.30;99.90;;;11.07;71.63;101089.72;4925658;28;97591;-44
2023/04/07 07:03:40;;;;;;;3.70;1.93;;;11.30;99.90;;;10.95;72.26;101091.81;4909761;28;97191;-44
2023/04/07 07:06:06;;;;;;;2.93;1.53;;;11.20;99.90;;;10.95;72.76;101101.53;4903566;28;97797;-46
2023/04/07 07:08:32;;;;;;;2.23;1.47;;;11.20;99.90;;;10.92;72.80;101097.19;4923788;28;97730;-41
2023/04/07 07:10:58;;;;;;;4.50;1.43;;;11.20;99.90;;;11.02;72.31;101098.66;4913053;28;103033;-41
2023/04/07 07:13:25;;;;;;;3.13;2.00;;;11.20;99.90;;;11.00;72.68;101103.13;4917080;28;96971;-47
2023/04/07 07:15:52;;;;;;;3.87;2.33;;;11.10;99.90;;;11.04;72.63;101106.53;4907619;28;96776;-42
2023/04/07 07:18:18;;;;;;;2.47;1.60;;;11.20;99.90;;;10.91;72.71;101095.47;4908251;28;101110;-43
2023/04/07 07:20:45;;;;;;;2.83;1.27;;;11.20;99.90;;;10.89;72.67;101102.56;4908332;28;98200;-43
2023/04/07 07:23:10;;;;;;;3.10;1.90;;;11.20;99.90;;;10.91;71.92;101111.31;4905547;28;97188;-45
2023/04/07 07:25:37;;;;;;;2.70;1.50;;;11.10;99.90;;;10.95;71.61;101107.66;4905985;28;97212;-41
2023/04/07 07:28:03;;;;;;;2.70;1.03;;;11.10;99.90;;;10.92;72.53;101115.69;4908913;28;98340;-44
2023/04/07 07:30:29;;;;;;;1.70;1.20;;;11.20;99.90;;;10.87;72.61;101109.69;4928660;28;104353;-42
2023/04/07 07:32:55;;;;;;;5.20;1.93;;;11.10;99.90;;;10.96;72.55;101114.66;4911034;28;97345;-45
2023/04/07 07:35:24;;;;;;;4.10;1.60;;;11.20;99.90;;;10.99;72.41;101114.59;4893415;28;97758;-45
2023/04/07 07:37:50;;;;;;;4.00;1.50;;;11.20;99.90;;;10.98;72.08;101126.03;4896370;28;98240;-43
2023/04/07 07:40:17;;;;;;;2.23;1.10;;;11.20;99.90;;;10.93;72.17;101125.31;4888468;28;97963;-45
2023/04/07 07:42:43;;;;;;;2.80;1.20;;;11.10;99.90;;;11.10;71.83;101131.88;4883272;28;99072;-44
2023/04/07 07:45:10;;;;;;;3.33;1.50;;;11.20;99.90;;;11.13;72.02;101127.34;4882814;28;98325;-43
2023/04/07 07:47:36;;;;;;;1.80;1.10;;;11.20;99.90;;;11.15;71.93;101129.97;4880720;28;97332;-46
2023/04/07 07:50:03;;;;;;;2.83;1.27;;;11.20;99.90;;;11.18;71.39;101130.75;4883912;28;97437;-47
2023/04/07 07:52:30;;;;;;;2.83;1.37;;;11.30;99.90;;;11.21;71.42;101129.78;4886578;28;97697;-49
2023/04/07 07:54:56;;;;;;;2.53;1.13;;;11.30;99.90;;;11.24;71.46;101140.22;4885792;28;100627;-47
2023/04/07 07:57:22;;;;;;;2.13;1.00;;;11.30;99.90;;;11.20;71.40;101135.97;4885378;28;99801;-48
2023/04/07 07:59:47;;;;;;;2.47;1.40;;;11.40;99.90;;;11.25;71.08;101137.53;4892273;28;98054;-45
2023/04/07 08:02:13;;;;;;;3.93;1.40;;;11.40;99.90;;;11.13;71.25;101147.59;4892834;28;97507;-45
2023/04/07 08:04:39;;;;;;;4.77;1.67;;;11.40;99.90;;;11.14;71.31;101138.78;4900752;28;100677;-40
2023/04/07 08:07:05;;;;;;;2.30;1.30;;;11.30;99.90;;;11.15;71.69;101145.81;4882424;28;97381;-47
2023/04/07 08:09:31;;;;;;;2.43;1.77;;;11.30;99.90;;;11.15;71.39;101143.19;4899031;28;98743;-48
2023/04/07 08:11:58;;;;;;;4.17;1.93;;;11.30;99.90;;;11.24;70.74;101145.50;4896350;28;98321;-46
2023/04/07 08:14:24;;;;;;;3.33;1.67;;;11.30;99.90;;;11.21;71.09;101156.19;4899810;28;97214;-44
2023/04/07 08:16:50;;;;;;;3.43;1.27;;;11.40;99.90;;;11.28;71.44;101157.69;4896477;28;98552;-41
2023/04/07 08:19:16;;;;;;;3.73;1.73;;;11.40;99.90;;;11.31;71.03;101157.63;4895549;28;98979;-46
2023/04/07 08:21:42;;;;;;;3.33;1.97;;;11.50;99.90;;;11.20;71.08;101157.09;4891591;28;98411;-41
2023/04/07 08:24:09;;;;;;;3.97;1.80;;;11.40;99.90;;;11.10;71.43;101168.84;4892907;28;97465;-43
2023/04/07 08:26:35;;;;;;;2.43;1.37;;;11.40;99.90;;;11.01;72.17;101165.56;4882399;28;99360;-44
2023/04/07 08:29:00;;;;;;;5.20;1.67;;;11.30;99.90;;;11.10;72.35;101168.84;4905000;28;98281;-47
2023/04/07 08:31:26;;;;;;;3.30;1.70;;;11.30;99.90;;;11.21;72.24;101172.03;4895625;28;97290;-41
2023/04/07 08:33:56;;;;;;;2.83;1.63;;;11.40;99.90;;;11.24;72.01;101171.91;4889216;28;97462;-45
2023/04/07 08:36:23;;;;;;;4.80;2.27;;;11.40;99.90;;;11.37;70.28;101172.41;4877736;28;99180;-41
2023/04/07 08:38:49;;;;;;;4.13;1.60;;;11.50;99.90;;;11.44;71.00;101169.56;4887944;28;100662;-41
2023/04/07 08:41:46;;;;;;;4.73;1.70;;;11.60;99.90;;;11.29;71.34;101175.31;4889225;28;97412;-42
2023/04/07 08:44:14;;;;;;;2.93;1.60;;;11.50;99.90;;;11.14;71.38;101181.03;4885326;28;99805;-40
2023/04/07 08:46:40;;;;;;;2.20;1.33;;;11.40;99.90;;;11.16;71.84;101176.59;4903240;28;98947;-44
2023/04/07 08:49:12;;;;;;;4.13;1.90;;;11.40;99.90;;;11.05;72.19;101179.53;4908204;28;98054;-45
2023/04/07 08:51:48;;;;;;;3.10;1.77;;;11.40;99.90;;;11.05;72.05;101181.31;4903537;28;98423;-40
2023/04/07 08:54:17;;;;;;;2.87;1.50;;;11.30;99.90;;;11.03;72.48;101179.59;4896231;28;99546;-44
2023/04/07 08:56:44;;;;;;;2.43;1.53;;;11.30;99.90;;;11.15;72.29;101183.66;4896332;28;96919;-46
2023/04/07 08:59:13;;;;;;;4.30;2.23;;;11.40;99.90;;;11.08;72.14;101190.00;4888433;28;99961;-43
2023/04/07 09:01:40;;;;;;;4.53;2.20;;;11.30;99.90;;;11.18;72.73;101185.31;4896966;28;97655;-43
2023/04/07 09:04:08;;;;;;;3.77;1.80;;;11.40;99.90;;;11.18;72.36;101182.69;4894896;28;99586;-46
2023/04/07 09:06:35;;;;;;;4.27;1.83;;;11.40;99.90;;;11.13;72.74;101184.56;4894440;28;98298;-46
2023/04/07 09:09:02;;;;;;;5.93;3.07;;;11.40;99.90;;;11.19;72.63;101189.69;4897816;28;100085;-42
2023/04/07 09:11:29;;;;;;;6.53;2.37;;;11.40;99.90;;;11.03;72.26;101190.16;4879015;28;98717;-44
2023/04/07 09:13:56;;;;;;;5.43;2.67;;;11.40;99.90;;;11.12;72.36;101189.00;4890904;28;97791;-46
2023/04/07 09:16:25;;;;;;;3.57;1.83;;;11.40;99.90;;;11.21;72.49;101187.88;4883426;28;97506;-45
2023/04/07 09:18:53;;;;;;;3.83;1.63;;;11.40;99.90;;;11.23;72.44;101201.88;4888118;28;99355;-44
2023/04/07 09:21:19;;;;;;;15.30;3.07;;;11.50;99.90;;;11.34;71.96;101205.09;4878924;28;98293;-43
2023/04/07 09:23:46;;;;;;;3.37;1.73;;;11.50;99.90;;;11.32;71.93;101196.34;4887874;28;97489;-38
2023/04/07 09:26:27;;;;;;;4.10;2.07;;;11.50;99.90;;;11.43;72.26;101199.53;4892741;28;99262;-38
2023/04/07 09:29:03;;;;;;;8.27;2.50;;;11.60;99.90;;;11.33;72.60;101203.34;4879535;28;99828;-38
2023/04/07 09:31:49;;;;;;;5.23;1.70;;;11.60;99.90;;;11.24;72.08;101203.63;4883916;28;97379;-38
2023/04/07 09:34:33;;;;;;;4.17;1.90;;;11.50;99.90;;;11.30;72.38;101211.38;4902952;28;98697;-38
2023/04/07 09:36:59;;;;;;;3.67;1.93;;;11.50;99.90;;;11.28;72.43;101207.88;4894895;28;102940;-38
2023/04/07 09:39:26;;;;;;;4.00;1.90;;;11.50;99.90;;;11.31;72.54;101211.31;4881607;28;97842;-38
2023/04/07 09:41:52;;;;;;;2.10;1.10;;;11.60;99.90;;;11.47;70.23;101217.00;4882094;28;98837;-38
2023/04/07 09:44:22;;;;;;;5.67;2.10;;;11.60;99.90;;;11.35;71.54;101205.94;4884158;28;99418;-38
2023/04/07 09:46:53;;;;;;;3.87;2.03;;;11.60;99.90;;;11.45;71.38;101216.19;4894696;28;99075;-38
2023/04/07 09:49:20;;;;;;;6.43;2.50;;;11.60;99.90;;;11.40;71.16;101212.81;4904729;28;97163;-38
2023/04/07 09:52:06;;;;;;;4.83;1.77;;;11.60;99.90;;;11.41;70.88;101222.47;4882132;28;97395;-38
2023/04/07 09:54:36;;;;;;;7.00;3.13;;;11.60;99.90;;;11.34;71.30;101215.66;4896642;28;97955;-38
2023/04/07 09:57:04;;;;;;;5.60;2.60;;;11.60;99.90;;;11.23;71.56;101223.00;4898206;28;97991;-38
2023/04/07 09:59:32;;;;;;;4.73;2.87;;;11.50;99.90;;;11.31;72.06;101210.47;4882078;28;96901;-38
2023/04/07 10:01:59;;;;;;;4.10;2.17;;;11.50;99.90;;;11.45;71.88;101218.84;4895893;28;97875;-38
2023/04/07 10:04:25;;;;;;;3.67;1.70;;;11.60;99.90;;;11.43;71.69;101222.41;4893016;28;98811;-38
2023/04/07 10:06:56;;;;;;;4.93;2.80;;;11.60;99.90;;;11.46;71.91;101223.22;4898049;28;97358;-38
2023/04/07 10:09:24;;;;;;;4.53;1.57;;;11.60;99.90;;;11.52;71.81;101220.38;4892462;28;97620;-39
2023/04/07 10:11:52;;;;;;;4.23;1.87;;;11.60;99.90;;;11.48;70.92;101221.38;4881942;28;97633;-38
2023/04/07 10:14:20;;;;;;;3.13;1.50;;;11.70;99.90;;;11.32;71.52;101209.53;4886900;28;97341;-43
2023/04/07 10:16:47;;;;;;;3.50;1.77;;;11.60;99.90;;;11.43;71.00;101225.94;4895087;28;97283;-38